Accueil
METAR-TAF:

METAR-TAF

Aéroports :

Moscou-Cheremetievo, Russie

Aéroport de Moscou-Cheremetievo

latitude: 55-59N, longitude: 037-30E, altitude: 190 m

Observation

Le bulletin a été fait il y a 38 minutes, à 18:30 UTC
Vent 2 kt de direction variable
Température 3°C
Humidité 75%
Pression 1009 hPa
Visibilité 10 km ou plus
pas de nuages en-dessous de 1500 mètres et pas de cumulonimbus.

METAR: UUEE 241830Z VRB01MPS CAVOK 03/M01 Q1009 R24R/CLRD62 R24L/CLRD62 NOSIG

Heure: 22:08 (19:08 UTC)

Prévision

Le bulletin a été fait il y a 2 heures et 20 minutes, à 16:48 UTC
Prévision valable du 24 à 18 UTC au 25 à 18 UTC
Vent 10 kt de ouest/nord-ouest
Visibilité: 6000 m
Nuages fragmentés à une hauteur de 1500 ft
Evoluant progressivement
du 25 à 01 UTC au 25 à 05 UTC
Vent 10 kt de sud/sud-ouest

TAF: UUEE 241648Z 2418/2518 30005MPS 6000 BKN015 TX11/2512Z TNM01/2502Z BECMG 2501/2505 20005MPS

Observations et prévisions météorologiques de plus de 4000 aéroports (messages METAR et TAF).

Les stations disponibles sont représentées par des disques jaunes et rouges sur la carte.

Passer la souris dessus pour voir le nom de la station.

Cliquer dessus pour voir les observations et prévisions météorologiques.

Pour changer de carte: cliquez sur les boutons verts avec une croix noire pour zoomer, sur le bouton vert avec un tiret pour effectuer un zoom arrière, ou sur les flèches vertes pour les cartes adjacentes.


METAR-TAF: